sensor_id;sensor_type;location;lat;lon;timestamp;P1;durP1;ratioP1;P2;durP2;ratioP2
26574;SDS011;67165;50.256;10.978;2023-04-09T00:00:18;32.47;;;20.38;;
26574;SDS011;67165;50.256;10.978;2023-04-09T00:02:44;31.17;;;20.75;;
26574;SDS011;67165;50.256;10.978;2023-04-09T00:05:12;37.03;;;21.27;;
26574;SDS011;67165;50.256;10.978;2023-04-09T00:07:40;34.55;;;22.08;;
26574;SDS011;67165;50.256;10.978;2023-04-09T00:10:16;35.30;;;22.60;;
26574;SDS011;67165;50.256;10.978;2023-04-09T00:12:41;31.75;;;21.33;;
26574;SDS011;67165;50.256;10.978;2023-04-09T00:15:07;33.55;;;21.20;;
26574;SDS011;67165;50.256;10.978;2023-04-09T00:17:33;30.98;;;20.88;;
26574;SDS011;67165;50.256;10.978;2023-04-09T00:19:59;33.83;;;21.35;;
26574;SDS011;67165;50.256;10.978;2023-04-09T00:22:25;35.15;;;21.48;;
26574;SDS011;67165;50.256;10.978;2023-04-09T00:24:53;33.42;;;22.35;;
26574;SDS011;67165;50.256;10.978;2023-04-09T00:27:22;35.45;;;22.20;;
26574;SDS011;67165;50.256;10.978;2023-04-09T00:29:54;34.00;;;20.77;;
26574;SDS011;67165;50.256;10.978;2023-04-09T00:32:21;39.20;;;24.63;;
26574;SDS011;67165;50.256;10.978;2023-04-09T00:34:47;37.15;;;22.67;;
26574;SDS011;67165;50.256;10.978;2023-04-09T00:37:15;36.88;;;22.95;;
26574;SDS011;67165;50.256;10.978;2023-04-09T00:39:50;34.30;;;21.40;;
26574;SDS011;67165;50.256;10.978;2023-04-09T00:42:18;32.05;;;20.65;;
26574;SDS011;67165;50.256;10.978;2023-04-09T00:44:58;32.28;;;20.33;;
26574;SDS011;67165;50.256;10.978;2023-04-09T00:47:27;27.92;;;18.90;;
26574;SDS011;67165;50.256;10.978;2023-04-09T00:49:55;29.52;;;19.00;;
26574;SDS011;67165;50.256;10.978;2023-04-09T00:52:24;26.77;;;18.90;;
26574;SDS011;67165;50.256;10.978;2023-04-09T00:54:50;28.42;;;19.30;;
26574;SDS011;67165;50.256;10.978;2023-04-09T00:57:17;29.40;;;18.58;;
26574;SDS011;67165;50.256;10.978;2023-04-09T00:59:46;27.65;;;17.73;;
26574;SDS011;67165;50.256;10.978;2023-04-09T01:02:14;28.45;;;18.67;;
26574;SDS011;67165;50.256;10.978;2023-04-09T01:04:42;29.10;;;18.42;;
26574;SDS011;67165;50.256;10.978;2023-04-09T01:10:04;27.25;;;17.65;;
26574;SDS011;67165;50.256;10.978;2023-04-09T01:15:34;25.50;;;17.42;;
26574;SDS011;67165;50.256;10.978;2023-04-09T01:18:05;25.92;;;17.73;;
26574;SDS011;67165;50.256;10.978;2023-04-09T01:28:55;25.40;;;17.25;;
26574;SDS011;67165;50.256;10.978;2023-04-09T01:31:31;27.40;;;18.05;;
26574;SDS011;67165;50.256;10.978;2023-04-09T01:34:01;24.33;;;16.73;;
26574;SDS011;67165;50.256;10.978;2023-04-09T01:36:29;25.30;;;16.95;;
26574;SDS011;67165;50.256;10.978;2023-04-09T01:39:01;25.77;;;16.55;;
26574;SDS011;67165;50.256;10.978;2023-04-09T01:41:31;26.50;;;16.73;;
26574;SDS011;67165;50.256;10.978;2023-04-09T01:43:59;28.50;;;17.35;;
26574;SDS011;67165;50.256;10.978;2023-04-09T01:46:27;26.98;;;17.38;;
26574;SDS011;67165;50.256;10.978;2023-04-09T01:48:54;23.33;;;15.75;;
26574;SDS011;67165;50.256;10.978;2023-04-09T01:51:20;24.73;;;16.40;;
26574;SDS011;67165;50.256;10.978;2023-04-09T01:53:51;25.52;;;16.83;;
26574;SDS011;67165;50.256;10.978;2023-04-09T01:56:19;24.67;;;16.45;;
26574;SDS011;67165;50.256;10.978;2023-04-09T01:58:45;22.80;;;15.55;;
26574;SDS011;67165;50.256;10.978;2023-04-09T02:01:23;23.67;;;16.00;;
26574;SDS011;67165;50.256;10.978;2023-04-09T02:04:21;24.15;;;16.40;;
26574;SDS011;67165;50.256;10.978;2023-04-09T02:09:29;22.35;;;15.15;;
26574;SDS011;67165;50.256;10.978;2023-04-09T02:12:01;27.88;;;17.27;;
26574;SDS011;67165;50.256;10.978;2023-04-09T02:14:30;26.52;;;16.83;;
26574;SDS011;67165;50.256;10.978;2023-04-09T02:17:00;26.52;;;16.20;;
26574;SDS011;67165;50.256;10.978;2023-04-09T02:19:47;26.50;;;16.75;;
26574;SDS011;67165;50.256;10.978;2023-04-09T02:22:12;25.58;;;16.27;;
26574;SDS011;67165;50.256;10.978;2023-04-09T02:24:41;24.90;;;16.52;;
26574;SDS011;67165;50.256;10.978;2023-04-09T02:27:07;24.70;;;16.15;;
26574;SDS011;67165;50.256;10.978;2023-04-09T02:29:33;25.48;;;16.38;;
26574;SDS011;67165;50.256;10.978;2023-04-09T02:32:01;25.55;;;16.63;;
26574;SDS011;67165;50.256;10.978;2023-04-09T02:34:29;25.38;;;16.25;;
26574;SDS011;67165;50.256;10.978;2023-04-09T02:36:58;26.65;;;16.17;;
26574;SDS011;67165;50.256;10.978;2023-04-09T02:39:29;25.98;;;16.38;;
26574;SDS011;67165;50.256;10.978;2023-04-09T02:41:55;23.85;;;16.15;;
26574;SDS011;67165;50.256;10.978;2023-04-09T02:44:21;25.17;;;16.55;;
26574;SDS011;67165;50.256;10.978;2023-04-09T02:46:49;28.60;;;17.55;;
26574;SDS011;67165;50.256;10.978;2023-04-09T02:49:19;25.77;;;16.38;;
26574;SDS011;67165;50.256;10.978;2023-04-09T02:51:48;26.10;;;16.38;;
26574;SDS011;67165;50.256;10.978;2023-04-09T02:54:13;26.45;;;16.20;;
26574;SDS011;67165;50.256;10.978;2023-04-09T02:56:39;28.15;;;17.58;;
26574;SDS011;67165;50.256;10.978;2023-04-09T02:59:05;25.42;;;16.48;;
26574;SDS011;67165;50.256;10.978;2023-04-09T03:01:33;25.30;;;16.67;;
26574;SDS011;67165;50.256;10.978;2023-04-09T03:04:02;25.05;;;16.35;;
26574;SDS011;67165;50.256;10.978;2023-04-09T03:06:27;23.35;;;15.75;;
26574;SDS011;67165;50.256;10.978;2023-04-09T03:08:53;25.65;;;16.70;;
26574;SDS011;67165;50.256;10.978;2023-04-09T03:11:21;24.85;;;16.33;;
26574;SDS011;67165;50.256;10.978;2023-04-09T03:13:47;24.73;;;15.93;;
26574;SDS011;67165;50.256;10.978;2023-04-09T03:16:15;27.70;;;16.50;;
26574;SDS011;67165;50.256;10.978;2023-04-09T03:18:41;24.75;;;16.17;;
26574;SDS011;67165;50.256;10.978;2023-04-09T03:21:07;25.65;;;17.30;;
26574;SDS011;67165;50.256;10.978;2023-04-09T03:23:35;26.30;;;16.45;;
26574;SDS011;67165;50.256;10.978;2023-04-09T03:26:02;31.92;;;18.15;;
26574;SDS011;67165;50.256;10.978;2023-04-09T03:28:31;26.65;;;16.90;;
26574;SDS011;67165;50.256;10.978;2023-04-09T03:30:59;25.63;;;17.40;;
26574;SDS011;67165;50.256;10.978;2023-04-09T03:33:25;26.10;;;17.33;;
26574;SDS011;67165;50.256;10.978;2023-04-09T03:35:51;28.27;;;17.95;;
26574;SDS011;67165;50.256;10.978;2023-04-09T03:38:16;27.95;;;18.23;;
26574;SDS011;67165;50.256;10.978;2023-04-09T03:40:43;29.33;;;18.60;;
26574;SDS011;67165;50.256;10.978;2023-04-09T03:43:09;32.97;;;18.70;;
26574;SDS011;67165;50.256;10.978;2023-04-09T03:45:35;30.40;;;18.10;;
26574;SDS011;67165;50.256;10.978;2023-04-09T03:48:00;30.15;;;19.25;;
26574;SDS011;67165;50.256;10.978;2023-04-09T03:50:29;30.67;;;20.38;;
26574;SDS011;67165;50.256;10.978;2023-04-09T03:53:00;34.92;;;20.73;;
26574;SDS011;67165;50.256;10.978;2023-04-09T03:55:26;31.45;;;20.15;;
26574;SDS011;67165;50.256;10.978;2023-04-09T03:57:52;33.50;;;20.80;;
26574;SDS011;67165;50.256;10.978;2023-04-09T04:00:17;34.35;;;22.55;;
26574;SDS011;67165;50.256;10.978;2023-04-09T04:02:43;38.03;;;22.20;;
26574;SDS011;67165;50.256;10.978;2023-04-09T04:05:09;39.58;;;24.77;;
26574;SDS011;67165;50.256;10.978;2023-04-09T04:07:35;39.13;;;23.70;;
26574;SDS011;67165;50.256;10.978;2023-04-09T04:10:02;37.90;;;23.40;;
26574;SDS011;67165;50.256;10.978;2023-04-09T04:12:31;43.40;;;25.67;;
26574;SDS011;67165;50.256;10.978;2023-04-09T04:14:57;50.72;;;28.20;;
26574;SDS011;67165;50.256;10.978;2023-04-09T04:17:26;45.40;;;27.75;;
26574;SDS011;67165;50.256;10.978;2023-04-09T04:19:51;48.17;;;28.13;;
26574;SDS011;67165;50.256;10.978;2023-04-09T04:22:17;47.90;;;27.33;;
26574;SDS011;67165;50.256;10.978;2023-04-09T04:24:45;48.63;;;29.20;;
26574;SDS011;67165;50.256;10.978;2023-04-09T04:27:11;49.70;;;28.83;;
26574;SDS011;67165;50.256;10.978;2023-04-09T04:29:39;50.33;;;29.38;;
26574;SDS011;67165;50.256;10.978;2023-04-09T04:32:07;49.70;;;28.80;;
26574;SDS011;67165;50.256;10.978;2023-04-09T04:34:32;48.20;;;28.95;;
26574;SDS011;67165;50.256;10.978;2023-04-09T04:36:58;52.25;;;29.67;;
26574;SDS011;67165;50.256;10.978;2023-04-09T04:39:29;50.47;;;29.58;;
26574;SDS011;67165;50.256;10.978;2023-04-09T04:41:58;52.00;;;30.35;;
26574;SDS011;67165;50.256;10.978;2023-04-09T04:44:31;52.17;;;30.27;;
26574;SDS011;67165;50.256;10.978;2023-04-09T04:46:57;52.17;;;30.27;;
26574;SDS011;67165;50.256;10.978;2023-04-09T04:49:23;57.55;;;31.35;;
26574;SDS011;67165;50.256;10.978;2023-04-09T04:51:51;53.28;;;30.95;;
26574;SDS011;67165;50.256;10.978;2023-04-09T04:54:17;54.00;;;31.05;;
26574;SDS011;67165;50.256;10.978;2023-04-09T04:56:42;56.28;;;30.98;;
26574;SDS011;67165;50.256;10.978;2023-04-09T04:59:11;55.25;;;30.52;;
26574;SDS011;67165;50.256;10.978;2023-04-09T05:01:36;48.90;;;29.63;;
26574;SDS011;67165;50.256;10.978;2023-04-09T05:04:02;52.22;;;28.73;;
26574;SDS011;67165;50.256;10.978;2023-04-09T05:06:28;52.60;;;30.02;;
26574;SDS011;67165;50.256;10.978;2023-04-09T05:08:55;55.90;;;29.20;;
26574;SDS011;67165;50.256;10.978;2023-04-09T05:11:27;51.45;;;28.67;;
26574;SDS011;67165;50.256;10.978;2023-04-09T05:13:56;52.00;;;29.77;;
26574;SDS011;67165;50.256;10.978;2023-04-09T05:16:24;50.33;;;28.20;;
26574;SDS011;67165;50.256;10.978;2023-04-09T05:18:50;48.90;;;29.00;;
26574;SDS011;67165;50.256;10.978;2023-04-09T05:21:20;49.92;;;28.48;;
26574;SDS011;67165;50.256;10.978;2023-04-09T05:23:46;51.00;;;29.23;;
26574;SDS011;67165;50.256;10.978;2023-04-09T05:26:14;50.67;;;28.70;;
26574;SDS011;67165;50.256;10.978;2023-04-09T05:28:40;51.80;;;29.33;;
26574;SDS011;67165;50.256;10.978;2023-04-09T05:31:08;55.47;;;29.08;;
26574;SDS011;67165;50.256;10.978;2023-04-09T05:33:37;48.25;;;28.00;;
26574;SDS011;67165;50.256;10.978;2023-04-09T05:36:03;50.13;;;29.63;;
26574;SDS011;67165;50.256;10.978;2023-04-09T05:38:31;52.05;;;29.05;;
26574;SDS011;67165;50.256;10.978;2023-04-09T05:40:57;53.17;;;29.83;;
26574;SDS011;67165;50.256;10.978;2023-04-09T05:43:27;49.10;;;28.23;;
26574;SDS011;67165;50.256;10.978;2023-04-09T05:45:53;51.55;;;28.60;;
26574;SDS011;67165;50.256;10.978;2023-04-09T05:48:19;50.95;;;28.88;;
26574;SDS011;67165;50.256;10.978;2023-04-09T05:50:50;47.95;;;27.55;;
26574;SDS011;67165;50.256;10.978;2023-04-09T05:53:17;45.97;;;27.52;;
26574;SDS011;67165;50.256;10.978;2023-04-09T05:55:48;42.50;;;25.42;;
26574;SDS011;67165;50.256;10.978;2023-04-09T05:58:14;45.83;;;27.42;;
26574;SDS011;67165;50.256;10.978;2023-04-09T06:00:45;47.85;;;27.25;;
26574;SDS011;67165;50.256;10.978;2023-04-09T06:03:11;43.63;;;26.27;;
26574;SDS011;67165;50.256;10.978;2023-04-09T06:05:40;40.03;;;25.13;;
26574;SDS011;67165;50.256;10.978;2023-04-09T06:08:06;41.45;;;25.65;;
26574;SDS011;67165;50.256;10.978;2023-04-09T06:10:37;40.03;;;24.83;;
26574;SDS011;67165;50.256;10.978;2023-04-09T06:13:02;42.53;;;26.50;;
26574;SDS011;67165;50.256;10.978;2023-04-09T06:15:28;46.65;;;27.30;;
26574;SDS011;67165;50.256;10.978;2023-04-09T06:18:06;43.92;;;26.48;;
26574;SDS011;67165;50.256;10.978;2023-04-09T06:20:31;42.40;;;25.90;;
26574;SDS011;67165;50.256;10.978;2023-04-09T06:22:57;40.55;;;25.02;;
26574;SDS011;67165;50.256;10.978;2023-04-09T06:25:32;39.95;;;24.75;;
26574;SDS011;67165;50.256;10.978;2023-04-09T06:28:00;39.75;;;24.50;;
26574;SDS011;67165;50.256;10.978;2023-04-09T06:30:27;37.75;;;24.30;;
26574;SDS011;67165;50.256;10.978;2023-04-09T06:32:55;37.13;;;23.77;;
26574;SDS011;67165;50.256;10.978;2023-04-09T06:35:29;39.67;;;24.75;;
26574;SDS011;67165;50.256;10.978;2023-04-09T06:38:05;35.05;;;22.60;;
26574;SDS011;67165;50.256;10.978;2023-04-09T06:40:36;36.38;;;22.38;;
26574;SDS011;67165;50.256;10.978;2023-04-09T06:43:03;35.15;;;22.25;;
26574;SDS011;67165;50.256;10.978;2023-04-09T06:45:32;36.90;;;23.58;;
26574;SDS011;67165;50.256;10.978;2023-04-09T06:48:01;35.78;;;22.52;;
26574;SDS011;67165;50.256;10.978;2023-04-09T06:50:34;34.72;;;22.13;;
26574;SDS011;67165;50.256;10.978;2023-04-09T06:53:02;34.53;;;22.90;;
26574;SDS011;67165;50.256;10.978;2023-04-09T06:55:36;32.55;;;21.80;;
26574;SDS011;67165;50.256;10.978;2023-04-09T06:58:11;32.47;;;20.98;;
26574;SDS011;67165;50.256;10.978;2023-04-09T07:00:37;34.08;;;21.63;;
26574;SDS011;67165;50.256;10.978;2023-04-09T07:06:11;31.20;;;20.67;;
26574;SDS011;67165;50.256;10.978;2023-04-09T07:08:58;32.05;;;20.70;;
26574;SDS011;67165;50.256;10.978;2023-04-09T07:11:35;34.60;;;21.20;;
26574;SDS011;67165;50.256;10.978;2023-04-09T07:14:16;31.65;;;20.55;;
26574;SDS011;67165;50.256;10.978;2023-04-09T07:20:13;36.67;;;21.20;;
26574;SDS011;67165;50.256;10.978;2023-04-09T07:22:44;35.50;;;22.23;;
26574;SDS011;67165;50.256;10.978;2023-04-09T07:25:15;34.08;;;21.77;;
26574;SDS011;67165;50.256;10.978;2023-04-09T07:27:46;33.70;;;21.08;;
26574;SDS011;67165;50.256;10.978;2023-04-09T07:30:39;32.85;;;20.85;;
26574;SDS011;67165;50.256;10.978;2023-04-09T07:36:01;30.08;;;19.42;;
26574;SDS011;67165;50.256;10.978;2023-04-09T07:38:43;29.20;;;19.75;;
26574;SDS011;67165;50.256;10.978;2023-04-09T07:41:21;28.38;;;18.40;;
26574;SDS011;67165;50.256;10.978;2023-04-09T07:43:49;26.02;;;17.58;;
26574;SDS011;67165;50.256;10.978;2023-04-09T07:46:23;28.58;;;18.27;;
26574;SDS011;67165;50.256;10.978;2023-04-09T07:48:54;29.20;;;18.58;;
26574;SDS011;67165;50.256;10.978;2023-04-09T07:51:22;26.13;;;18.10;;
26574;SDS011;67165;50.256;10.978;2023-04-09T07:53:48;27.70;;;18.27;;
26574;SDS011;67165;50.256;10.978;2023-04-09T07:56:26;27.58;;;18.33;;
26574;SDS011;67165;50.256;10.978;2023-04-09T07:58:54;28.27;;;18.83;;
26574;SDS011;67165;50.256;10.978;2023-04-09T08:01:26;33.72;;;20.48;;
26574;SDS011;67165;50.256;10.978;2023-04-09T08:03:55;29.17;;;19.15;;
26574;SDS011;67165;50.256;10.978;2023-04-09T08:06:25;28.77;;;18.85;;
26574;SDS011;67165;50.256;10.978;2023-04-09T08:08:53;32.05;;;20.90;;
26574;SDS011;67165;50.256;10.978;2023-04-09T08:11:19;26.98;;;17.60;;
26574;SDS011;67165;50.256;10.978;2023-04-09T08:13:50;30.23;;;19.33;;
26574;SDS011;67165;50.256;10.978;2023-04-09T08:16:19;26.42;;;18.50;;
26574;SDS011;67165;50.256;10.978;2023-04-09T08:18:48;29.95;;;19.95;;
26574;SDS011;67165;50.256;10.978;2023-04-09T08:21:15;27.52;;;18.73;;
26574;SDS011;67165;50.256;10.978;2023-04-09T08:23:40;29.85;;;19.00;;
26574;SDS011;67165;50.256;10.978;2023-04-09T08:26:09;25.85;;;17.73;;
26574;SDS011;67165;50.256;10.978;2023-04-09T08:28:37;23.95;;;16.17;;
26574;SDS011;67165;50.256;10.978;2023-04-09T08:31:07;28.33;;;19.27;;
26574;SDS011;67165;50.256;10.978;2023-04-09T08:33:36;30.15;;;19.95;;
26574;SDS011;67165;50.256;10.978;2023-04-09T08:36:01;29.83;;;20.25;;
26574;SDS011;67165;50.256;10.978;2023-04-09T08:38:35;29.40;;;19.33;;
26574;SDS011;67165;50.256;10.978;2023-04-09T08:41:07;27.75;;;18.73;;
26574;SDS011;67165;50.256;10.978;2023-04-09T08:43:40;29.30;;;18.95;;
26574;SDS011;67165;50.256;10.978;2023-04-09T08:46:09;29.00;;;18.92;;
26574;SDS011;67165;50.256;10.978;2023-04-09T08:48:38;26.45;;;18.67;;
26574;SDS011;67165;50.256;10.978;2023-04-09T08:51:10;29.60;;;19.48;;
26574;SDS011;67165;50.256;10.978;2023-04-09T08:53:46;25.80;;;17.95;;
26574;SDS011;67165;50.256;10.978;2023-04-09T08:56:18;24.80;;;17.30;;
26574;SDS011;67165;50.256;10.978;2023-04-09T08:58:46;24.55;;;16.98;;
26574;SDS011;67165;50.256;10.978;2023-04-09T09:06:38;23.15;;;15.50;;
26574;SDS011;67165;50.256;10.978;2023-04-09T09:11:35;22.75;;;14.98;;
26574;SDS011;67165;50.256;10.978;2023-04-09T09:14:02;20.00;;;14.05;;
26574;SDS011;67165;50.256;10.978;2023-04-09T09:16:29;19.50;;;14.27;;
26574;SDS011;67165;50.256;10.978;2023-04-09T09:18:59;19.58;;;13.50;;
26574;SDS011;67165;50.256;10.978;2023-04-09T09:21:28;21.10;;;14.10;;
26574;SDS011;67165;50.256;10.978;2023-04-09T09:23:54;21.38;;;14.32;;
26574;SDS011;67165;50.256;10.978;2023-04-09T09:26:29;23.85;;;16.25;;
26574;SDS011;67165;50.256;10.978;2023-04-09T09:28:58;23.25;;;16.33;;
26574;SDS011;67165;50.256;10.978;2023-04-09T09:31:28;21.98;;;14.95;;
26574;SDS011;67165;50.256;10.978;2023-04-09T09:33:53;22.95;;;15.50;;
26574;SDS011;67165;50.256;10.978;2023-04-09T09:36:34;23.73;;;15.63;;
26574;SDS011;67165;50.256;10.978;2023-04-09T09:39:01;21.65;;;15.63;;
26574;SDS011;67165;50.256;10.978;2023-04-09T09:41:34;21.67;;;15.10;;
26574;SDS011;67165;50.256;10.978;2023-04-09T09:44:02;22.95;;;16.25;;
26574;SDS011;67165;50.256;10.978;2023-04-09T09:46:40;22.10;;;15.15;;
26574;SDS011;67165;50.256;10.978;2023-04-09T09:49:06;20.23;;;14.30;;
26574;SDS011;67165;50.256;10.978;2023-04-09T09:51:34;21.90;;;14.95;;
26574;SDS011;67165;50.256;10.978;2023-04-09T09:54:03;18.60;;;13.50;;
26574;SDS011;67165;50.256;10.978;2023-04-09T09:56:37;20.85;;;14.45;;
26574;SDS011;67165;50.256;10.978;2023-04-09T10:01:41;22.73;;;14.75;;
26574;SDS011;67165;50.256;10.978;2023-04-09T10:04:08;19.80;;;13.88;;
26574;SDS011;67165;50.256;10.978;2023-04-09T10:06:43;18.50;;;12.95;;
26574;SDS011;67165;50.256;10.978;2023-04-09T10:09:09;18.25;;;12.23;;
26574;SDS011;67165;50.256;10.978;2023-04-09T10:11:44;15.38;;;11.00;;
26574;SDS011;67165;50.256;10.978;2023-04-09T10:14:15;16.95;;;11.80;;
26574;SDS011;67165;50.256;10.978;2023-04-09T10:16:45;16.95;;;12.48;;
26574;SDS011;67165;50.256;10.978;2023-04-09T10:19:11;16.55;;;11.88;;
26574;SDS011;67165;50.256;10.978;2023-04-09T10:21:44;14.45;;;10.07;;
26574;SDS011;67165;50.256;10.978;2023-04-09T10:24:18;12.48;;;9.50;;
26574;SDS011;67165;50.256;10.978;2023-04-09T10:26:44;12.85;;;9.50;;
26574;SDS011;67165;50.256;10.978;2023-04-09T10:29:13;12.45;;;8.68;;
26574;SDS011;67165;50.256;10.978;2023-04-09T10:34:22;12.45;;;8.80;;
26574;SDS011;67165;50.256;10.978;2023-04-09T10:36:54;11.57;;;7.95;;
26574;SDS011;67165;50.256;10.978;2023-04-09T10:39:25;11.85;;;8.80;;
26574;SDS011;67165;50.256;10.978;2023-04-09T10:41:52;12.32;;;9.23;;
26574;SDS011;67165;50.256;10.978;2023-04-09T10:44:19;9.32;;;7.18;;
26574;SDS011;67165;50.256;10.978;2023-04-09T10:46:56;10.35;;;7.35;;
26574;SDS011;67165;50.256;10.978;2023-04-09T10:49:25;9.85;;;7.28;;
26574;SDS011;67165;50.256;10.978;2023-04-09T10:59:40;12.32;;;8.27;;
26574;SDS011;67165;50.256;10.978;2023-04-09T11:08:18;10.18;;;7.68;;
26574;SDS011;67165;50.256;10.978;2023-04-09T11:10:38;9.68;;;7.07;;
26574;SDS011;67165;50.256;10.978;2023-04-09T11:13:15;10.90;;;8.07;;
26574;SDS011;67165;50.256;10.978;2023-04-09T11:15:43;9.88;;;7.75;;
26574;SDS011;67165;50.256;10.978;2023-04-09T11:18:28;10.10;;;7.57;;
26574;SDS011;67165;50.256;10.978;2023-04-09T11:20:55;9.70;;;7.13;;
26574;SDS011;67165;50.256;10.978;2023-04-09T11:23:22;9.18;;;6.70;;
26574;SDS011;67165;50.256;10.978;2023-04-09T11:25:52;8.82;;;6.57;;
26574;SDS011;67165;50.256;10.978;2023-04-09T11:28:23;10.35;;;7.95;;
26574;SDS011;67165;50.256;10.978;2023-04-09T11:30:50;9.93;;;7.80;;
26574;SDS011;67165;50.256;10.978;2023-04-09T11:33:16;9.82;;;7.35;;
26574;SDS011;67165;50.256;10.978;2023-04-09T11:35:44;9.80;;;7.38;;
26574;SDS011;67165;50.256;10.978;2023-04-09T11:38:10;9.88;;;7.45;;
26574;SDS011;67165;50.256;10.978;2023-04-09T11:40:37;9.98;;;7.43;;
26574;SDS011;67165;50.256;10.978;2023-04-09T11:43:15;10.30;;;7.28;;
26574;SDS011;67165;50.256;10.978;2023-04-09T11:45:49;9.63;;;7.43;;
26574;SDS011;67165;50.256;10.978;2023-04-09T11:48:15;10.05;;;7.35;;
26574;SDS011;67165;50.256;10.978;2023-04-09T11:50:45;10.05;;;7.55;;
26574;SDS011;67165;50.256;10.978;2023-04-09T11:53:21;10.55;;;6.88;;
26574;SDS011;67165;50.256;10.978;2023-04-09T11:55:56;10.45;;;6.80;;
26574;SDS011;67165;50.256;10.978;2023-04-09T11:58:22;8.05;;;6.05;;
26574;SDS011;67165;50.256;10.978;2023-04-09T12:00:53;8.95;;;6.57;;
26574;SDS011;67165;50.256;10.978;2023-04-09T12:03:40;8.35;;;6.65;;
26574;SDS011;67165;50.256;10.978;2023-04-09T12:06:08;8.40;;;6.43;;
26574;SDS011;67165;50.256;10.978;2023-04-09T12:08:37;8.88;;;6.82;;
26574;SDS011;67165;50.256;10.978;2023-04-09T12:11:07;7.60;;;6.13;;
26574;SDS011;67165;50.256;10.978;2023-04-09T12:13:37;8.18;;;6.55;;
26574;SDS011;67165;50.256;10.978;2023-04-09T12:16:12;8.10;;;6.30;;
26574;SDS011;67165;50.256;10.978;2023-04-09T12:18:38;8.20;;;6.65;;
26574;SDS011;67165;50.256;10.978;2023-04-09T12:21:05;8.35;;;6.45;;
26574;SDS011;67165;50.256;10.978;2023-04-09T12:23:31;8.75;;;6.47;;
26574;SDS011;67165;50.256;10.978;2023-04-09T12:25:57;7.75;;;6.15;;
26574;SDS011;67165;50.256;10.978;2023-04-09T12:28:26;7.53;;;6.18;;
26574;SDS011;67165;50.256;10.978;2023-04-09T12:30:53;8.23;;;6.75;;
26574;SDS011;67165;50.256;10.978;2023-04-09T12:33:19;7.22;;;5.93;;
26574;SDS011;67165;50.256;10.978;2023-04-09T12:35:48;7.53;;;5.95;;
26574;SDS011;67165;50.256;10.978;2023-04-09T12:38:16;7.57;;;5.60;;
26574;SDS011;67165;50.256;10.978;2023-04-09T12:40:42;7.28;;;5.75;;
26574;SDS011;67165;50.256;10.978;2023-04-09T12:43:08;8.68;;;6.65;;
26574;SDS011;67165;50.256;10.978;2023-04-09T12:45:39;9.98;;;6.22;;
26574;SDS011;67165;50.256;10.978;2023-04-09T12:48:07;8.57;;;6.13;;
26574;SDS011;67165;50.256;10.978;2023-04-09T12:50:33;7.40;;;6.00;;
26574;SDS011;67165;50.256;10.978;2023-04-09T12:52:58;6.85;;;5.70;;
26574;SDS011;67165;50.256;10.978;2023-04-09T12:55:27;7.32;;;5.88;;
26574;SDS011;67165;50.256;10.978;2023-04-09T12:57:52;6.75;;;5.63;;
26574;SDS011;67165;50.256;10.978;2023-04-09T13:00:18;7.20;;;5.63;;
26574;SDS011;67165;50.256;10.978;2023-04-09T13:02:48;8.15;;;6.00;;
26574;SDS011;67165;50.256;10.978;2023-04-09T13:05:15;7.88;;;6.78;;
26574;SDS011;67165;50.256;10.978;2023-04-09T13:07:41;8.00;;;6.10;;
26574;SDS011;67165;50.256;10.978;2023-04-09T13:10:07;7.25;;;5.80;;
26574;SDS011;67165;50.256;10.978;2023-04-09T13:12:35;7.50;;;5.70;;
26574;SDS011;67165;50.256;10.978;2023-04-09T13:15:01;7.55;;;6.03;;
26574;SDS011;67165;50.256;10.978;2023-04-09T13:17:27;6.80;;;5.57;;
26574;SDS011;67165;50.256;10.978;2023-04-09T13:19:53;7.55;;;6.00;;
26574;SDS011;67165;50.256;10.978;2023-04-09T13:22:18;8.05;;;6.53;;
26574;SDS011;67165;50.256;10.978;2023-04-09T13:24:44;6.68;;;5.50;;
26574;SDS011;67165;50.256;10.978;2023-04-09T13:27:10;6.78;;;5.75;;
26574;SDS011;67165;50.256;10.978;2023-04-09T13:29:36;7.53;;;5.70;;
26574;SDS011;67165;50.256;10.978;2023-04-09T13:32:01;6.80;;;5.70;;
26574;SDS011;67165;50.256;10.978;2023-04-09T13:34:31;7.75;;;5.78;;
26574;SDS011;67165;50.256;10.978;2023-04-09T13:36:58;12.57;;;5.97;;
26574;SDS011;67165;50.256;10.978;2023-04-09T13:39:24;7.63;;;5.80;;
26574;SDS011;67165;50.256;10.978;2023-04-09T13:41:50;6.80;;;6.00;;
26574;SDS011;67165;50.256;10.978;2023-04-09T13:44:16;7.53;;;5.68;;
26574;SDS011;67165;50.256;10.978;2023-04-09T13:46:42;7.70;;;6.22;;
26574;SDS011;67165;50.256;10.978;2023-04-09T13:49:07;6.85;;;5.75;;
26574;SDS011;67165;50.256;10.978;2023-04-09T13:51:33;6.68;;;5.53;;
26574;SDS011;67165;50.256;10.978;2023-04-09T13:53:59;7.45;;;5.93;;
26574;SDS011;67165;50.256;10.978;2023-04-09T13:56:27;7.25;;;6.03;;
26574;SDS011;67165;50.256;10.978;2023-04-09T13:58:56;8.15;;;6.40;;
26574;SDS011;67165;50.256;10.978;2023-04-09T14:01:22;6.97;;;5.50;;
26574;SDS011;67165;50.256;10.978;2023-04-09T14:03:56;6.47;;;5.40;;
26574;SDS011;67165;50.256;10.978;2023-04-09T14:06:22;6.90;;;5.97;;
26574;SDS011;67165;50.256;10.978;2023-04-09T14:08:48;7.25;;;6.00;;
26574;SDS011;67165;50.256;10.978;2023-04-09T14:11:13;8.65;;;6.20;;
26574;SDS011;67165;50.256;10.978;2023-04-09T14:13:43;8.13;;;6.30;;
26574;SDS011;67165;50.256;10.978;2023-04-09T14:16:12;6.95;;;5.85;;
26574;SDS011;67165;50.256;10.978;2023-04-09T14:18:38;7.43;;;5.72;;
26574;SDS011;67165;50.256;10.978;2023-04-09T14:21:04;7.70;;;5.60;;
26574;SDS011;67165;50.256;10.978;2023-04-09T14:23:31;8.40;;;6.28;;
26574;SDS011;67165;50.256;10.978;2023-04-09T14:25:57;7.63;;;6.10;;
26574;SDS011;67165;50.256;10.978;2023-04-09T14:28:25;8.55;;;5.97;;
26574;SDS011;67165;50.256;10.978;2023-04-09T14:30:56;8.73;;;6.75;;
26574;SDS011;67165;50.256;10.978;2023-04-09T14:33:23;7.28;;;6.20;;
26574;SDS011;67165;50.256;10.978;2023-04-09T14:35:51;9.48;;;6.72;;
26574;SDS011;67165;50.256;10.978;2023-04-09T14:38:17;8.65;;;6.50;;
26574;SDS011;67165;50.256;10.978;2023-04-09T14:40:43;7.40;;;6.25;;
26574;SDS011;67165;50.256;10.978;2023-04-09T14:43:09;8.40;;;7.00;;
26574;SDS011;67165;50.256;10.978;2023-04-09T14:45:37;8.48;;;6.43;;
26574;SDS011;67165;50.256;10.978;2023-04-09T14:48:02;8.35;;;6.50;;
26574;SDS011;67165;50.256;10.978;2023-04-09T14:50:29;8.27;;;6.88;;
26574;SDS011;67165;50.256;10.978;2023-04-09T14:52:56;8.75;;;6.10;;
26574;SDS011;67165;50.256;10.978;2023-04-09T14:55:21;9.18;;;6.80;;
26574;SDS011;67165;50.256;10.978;2023-04-09T14:57:49;8.98;;;6.55;;
26574;SDS011;67165;50.256;10.978;2023-04-09T15:00:15;9.20;;;7.05;;
26574;SDS011;67165;50.256;10.978;2023-04-09T15:02:41;8.75;;;6.65;;
26574;SDS011;67165;50.256;10.978;2023-04-09T15:05:09;8.93;;;6.75;;
26574;SDS011;67165;50.256;10.978;2023-04-09T15:07:35;8.75;;;6.88;;
26574;SDS011;67165;50.256;10.978;2023-04-09T15:10:01;8.65;;;6.97;;
26574;SDS011;67165;50.256;10.978;2023-04-09T15:12:27;9.00;;;6.78;;
26574;SDS011;67165;50.256;10.978;2023-04-09T15:14:56;9.60;;;7.13;;
26574;SDS011;67165;50.256;10.978;2023-04-09T15:17:22;9.65;;;7.05;;